createdAt,value
2018-04-30T00:00:35.987Z,18.20
2018-04-30T00:03:02.174Z,18.20
2018-04-30T00:05:29.460Z,18.10
2018-04-30T00:07:55.627Z,18.10
2018-04-30T00:12:51.100Z,17.90
2018-04-30T00:15:17.271Z,17.70
2018-04-30T00:17:43.478Z,17.60
2018-04-30T00:20:09.643Z,17.70
2018-04-30T00:22:35.902Z,17.50
2018-04-30T00:25:02.370Z,17.50
2018-04-30T00:27:30.987Z,17.40
2018-04-30T00:29:59.646Z,17.40
2018-04-30T00:32:25.867Z,17.20
2018-04-30T00:34:52.034Z,17.30
2018-04-30T00:37:18.218Z,17.20
2018-04-30T00:39:44.569Z,17.20
2018-04-30T00:42:10.730Z,17.20
2018-04-30T00:44:36.886Z,17.00
2018-04-30T00:47:03.063Z,17.20
2018-04-30T00:49:29.275Z,17.10
2018-04-30T00:51:55.452Z,17.10
2018-04-30T00:54:35.151Z,17.20
2018-04-30T00:57:01.308Z,17.10
2018-04-30T00:59:28.614Z,17.00
2018-04-30T01:01:54.852Z,17.00
2018-04-30T01:04:21.046Z,17.10
2018-04-30T01:06:47.234Z,17.00
2018-04-30T01:09:13.423Z,17.00
2018-04-30T01:11:39.606Z,16.90
2018-04-30T01:14:07.442Z,16.90
2018-04-30T01:16:33.616Z,16.90
2018-04-30T01:18:59.778Z,16.80
2018-04-30T01:21:27.171Z,16.70
2018-04-30T01:23:53.366Z,16.70
2018-04-30T01:26:19.527Z,16.60
2018-04-30T01:28:45.818Z,16.70
2018-04-30T01:31:11.983Z,16.50
2018-04-30T01:33:38.138Z,16.50
2018-04-30T01:36:04.319Z,16.50
2018-04-30T01:38:31.544Z,16.30
2018-04-30T01:40:58.829Z,16.50
2018-04-30T01:43:25.007Z,16.50
2018-04-30T01:45:51.179Z,16.50
2018-04-30T01:48:17.362Z,16.50
2018-04-30T01:50:43.558Z,16.50
2018-04-30T01:53:09.714Z,16.30
2018-04-30T01:55:35.897Z,16.40
2018-04-30T01:58:02.125Z,16.50
2018-04-30T02:00:28.281Z,16.40
2018-04-30T02:02:55.577Z,16.40
2018-04-30T02:05:21.795Z,16.20
2018-04-30T02:07:47.959Z,16.30
2018-04-30T02:10:14.149Z,16.30
2018-04-30T02:12:41.482Z,16.30
2018-04-30T02:15:07.665Z,16.20
2018-04-30T02:17:33.814Z,16.30
2018-04-30T02:19:59.986Z,16.30
2018-04-30T02:22:26.149Z,16.20
2018-04-30T02:24:53.434Z,16.40
2018-04-30T02:27:19.615Z,16.40
2018-04-30T02:29:45.790Z,16.30
2018-04-30T02:32:12.000Z,16.30
2018-04-30T02:34:38.170Z,16.30
2018-04-30T02:37:04.343Z,16.30
2018-04-30T02:39:34.012Z,16.20
2018-04-30T02:42:02.444Z,16.20
2018-04-30T02:44:30.936Z,16.10
2018-04-30T02:46:59.371Z,15.90
2018-04-30T02:49:25.568Z,16.00
2018-04-30T02:51:51.814Z,15.90
2018-04-30T02:54:18.015Z,16.00
2018-04-30T02:56:44.217Z,16.00
2018-04-30T02:59:10.395Z,15.70
2018-04-30T03:01:36.563Z,15.70
2018-04-30T03:04:02.772Z,15.80
2018-04-30T03:06:28.956Z,15.80
2018-04-30T03:08:55.228Z,15.60
2018-04-30T03:11:21.431Z,15.60
2018-04-30T03:13:47.598Z,15.60
2018-04-30T03:16:13.902Z,15.60
2018-04-30T03:18:40.090Z,15.60
2018-04-30T03:21:06.270Z,15.50
2018-04-30T03:23:32.674Z,15.60
2018-04-30T03:25:59.011Z,15.50
2018-04-30T03:28:25.188Z,15.50
2018-04-30T03:30:51.391Z,15.50
2018-04-30T03:35:46.631Z,15.30
2018-04-30T03:38:12.923Z,15.30
2018-04-30T03:40:39.091Z,15.30
2018-04-30T03:43:05.264Z,15.20
2018-04-30T03:45:31.463Z,15.10
2018-04-30T03:47:57.631Z,15.10
2018-04-30T03:50:23.804Z,15.00
2018-04-30T03:52:50.004Z,15.00
2018-04-30T03:55:16.287Z,14.90
2018-04-30T03:57:43.937Z,14.70
2018-04-30T04:00:23.446Z,14.70
2018-04-30T04:03:01.866Z,14.70
2018-04-30T04:05:40.391Z,14.70
2018-04-30T04:08:06.554Z,14.70
2018-04-30T04:10:32.715Z,14.60
2018-04-30T04:12:58.896Z,14.60
2018-04-30T04:15:26.182Z,14.60
2018-04-30T04:17:52.563Z,14.60
2018-04-30T04:20:18.743Z,14.60
2018-04-30T04:22:44.926Z,14.50
2018-04-30T04:25:11.078Z,14.50
2018-04-30T04:27:37.250Z,14.50
2018-04-30T04:30:03.412Z,14.50
2018-04-30T04:32:30.802Z,14.40
2018-04-30T04:34:57.038Z,14.40
2018-04-30T04:37:23.238Z,14.30
2018-04-30T04:39:49.386Z,14.10
2018-04-30T04:42:16.701Z,14.30
2018-04-30T04:44:42.897Z,14.20
2018-04-30T04:47:09.431Z,14.30
2018-04-30T04:49:35.601Z,14.20
2018-04-30T04:52:01.771Z,14.20
2018-04-30T04:54:27.943Z,14.10
2018-04-30T04:56:54.102Z,14.20
2018-04-30T04:59:20.369Z,14.30
2018-04-30T05:01:46.550Z,14.20
2018-04-30T05:04:13.939Z,14.10
2018-04-30T05:06:40.106Z,14.10
2018-04-30T05:11:34.209Z,14.20
2018-04-30T05:14:00.431Z,13.90
2018-04-30T05:16:26.702Z,14.10
2018-04-30T05:18:53.975Z,13.90
2018-04-30T05:21:20.259Z,13.90
2018-04-30T05:26:14.941Z,13.80
2018-04-30T05:28:41.106Z,13.90
2018-04-30T05:31:07.313Z,13.70
2018-04-30T05:33:33.476Z,13.70
2018-04-30T05:35:59.638Z,13.60
2018-04-30T05:38:25.818Z,13.70
2018-04-30T05:40:52.107Z,13.90
2018-04-30T05:43:18.359Z,13.80
2018-04-30T05:45:46.974Z,13.90
2018-04-30T05:48:14.291Z,13.80
2018-04-30T05:50:40.651Z,13.80
2018-04-30T05:53:06.934Z,13.90
2018-04-30T05:55:33.175Z,14.10
2018-04-30T05:58:00.887Z,14.00
2018-04-30T06:00:27.133Z,14.00
2018-04-30T06:02:53.545Z,14.10
2018-04-30T06:07:47.707Z,14.10
2018-04-30T06:10:13.882Z,14.20
2018-04-30T06:12:40.068Z,14.30
2018-04-30T06:15:06.299Z,14.20
2018-04-30T06:17:33.658Z,14.20
2018-04-30T06:19:59.919Z,14.20
2018-04-30T06:22:27.442Z,14.10
2018-04-30T06:24:53.839Z,14.10
2018-04-30T06:27:21.128Z,14.00
2018-04-30T06:29:47.519Z,14.10
2018-04-30T06:32:14.168Z,14.10
2018-04-30T06:34:40.454Z,14.10
2018-04-30T06:37:06.952Z,14.10
2018-04-30T06:39:33.556Z,14.10
2018-04-30T06:41:59.969Z,14.20
2018-04-30T06:44:26.639Z,14.10
2018-04-30T06:46:52.939Z,14.20
2018-04-30T06:49:19.173Z,14.00
2018-04-30T06:51:46.546Z,14.10
2018-04-30T06:54:19.702Z,14.10
2018-04-30T06:56:47.173Z,14.30
2018-04-30T06:59:13.770Z,14.30
2018-04-30T07:04:07.945Z,14.40
2018-04-30T07:06:35.655Z,14.70
2018-04-30T07:09:01.882Z,14.70
2018-04-30T07:11:28.060Z,14.80
2018-04-30T07:13:54.245Z,14.80
2018-04-30T07:16:20.701Z,14.80
2018-04-30T07:18:46.914Z,14.80
2018-04-30T07:21:13.263Z,14.80
2018-04-30T07:23:40.874Z,14.60
2018-04-30T07:26:07.337Z,14.60
2018-04-30T07:28:33.674Z,14.50
2018-04-30T07:31:00.061Z,14.60
2018-04-30T07:33:26.358Z,14.50
2018-04-30T07:35:52.664Z,14.40
2018-04-30T07:38:18.854Z,14.50
2018-04-30T07:40:45.245Z,14.30
2018-04-30T07:43:11.482Z,14.50
2018-04-30T07:45:38.279Z,14.60
2018-04-30T07:48:18.098Z,14.60
2018-04-30T07:50:45.415Z,14.90
2018-04-30T07:53:11.606Z,14.90
2018-04-30T07:55:37.799Z,14.80
2018-04-30T07:58:04.065Z,14.90
2018-04-30T08:00:30.358Z,15.00
2018-04-30T08:02:57.053Z,15.00
2018-04-30T08:05:23.238Z,14.90
2018-04-30T08:07:49.645Z,15.00
2018-04-30T08:10:15.809Z,14.90
2018-04-30T08:12:42.118Z,15.10
2018-04-30T08:15:08.326Z,15.40
2018-04-30T08:17:34.489Z,15.40
2018-04-30T08:20:00.647Z,15.70
2018-04-30T08:22:26.986Z,15.60
2018-04-30T08:24:53.318Z,15.60
2018-04-30T08:27:19.466Z,15.70
2018-04-30T08:29:45.627Z,15.70
2018-04-30T08:32:11.784Z,15.50
2018-04-30T08:34:37.991Z,15.40
2018-04-30T08:37:04.502Z,15.40
2018-04-30T08:39:30.928Z,15.20
2018-04-30T08:41:57.297Z,15.10
2018-04-30T08:44:23.466Z,15.20
2018-04-30T08:46:49.619Z,15.50
2018-04-30T08:49:15.767Z,16.10
2018-04-30T08:51:41.930Z,16.80
2018-04-30T08:56:35.969Z,17.60
2018-04-30T08:59:02.159Z,17.00
2018-04-30T09:01:28.330Z,16.50
2018-04-30T09:03:54.500Z,15.90
2018-04-30T09:06:20.655Z,15.70
2018-04-30T09:08:46.799Z,15.70
2018-04-30T09:11:13.275Z,15.60
2018-04-30T09:13:40.566Z,16.00
2018-04-30T09:16:06.787Z,15.90
2018-04-30T09:18:33.387Z,16.00
2018-04-30T09:20:59.666Z,16.10
2018-04-30T09:25:53.706Z,16.10
2018-04-30T09:28:20.262Z,16.30
2018-04-30T09:30:46.413Z,16.60
2018-04-30T09:33:12.671Z,16.60
2018-04-30T09:35:39.994Z,16.80
2018-04-30T09:38:06.171Z,16.60
2018-04-30T09:40:32.358Z,16.50
2018-04-30T09:42:58.517Z,16.60
2018-04-30T09:45:24.678Z,16.50
2018-04-30T09:47:50.958Z,16.20
2018-04-30T09:50:17.117Z,16.30
2018-04-30T09:52:43.282Z,16.30
2018-04-30T09:55:09.506Z,16.20
2018-04-30T09:57:35.733Z,16.00
2018-04-30T10:00:01.911Z,16.10
2018-04-30T10:02:29.081Z,16.40
2018-04-30T10:04:55.270Z,16.50
2018-04-30T10:07:22.607Z,16.60
2018-04-30T10:09:48.713Z,16.60
2018-04-30T10:12:16.002Z,16.90
2018-04-30T10:14:42.191Z,16.90
2018-04-30T10:17:08.365Z,16.80
2018-04-30T10:19:34.535Z,16.50
2018-04-30T10:22:00.758Z,16.60
2018-04-30T10:24:26.926Z,16.40
2018-04-30T10:29:22.145Z,16.60
2018-04-30T10:31:48.354Z,16.50
2018-04-30T10:34:15.969Z,16.60
2018-04-30T10:36:42.132Z,16.80
2018-04-30T10:39:08.334Z,17.30
2018-04-30T10:41:34.490Z,17.90
2018-04-30T10:44:00.678Z,18.80
2018-04-30T10:46:26.857Z,18.40
2018-04-30T10:51:20.932Z,17.80
2018-04-30T10:53:47.136Z,17.70
2018-04-30T10:56:14.518Z,20.30
2018-04-30T10:58:40.708Z,20.20
2018-04-30T11:01:06.867Z,20.90
2018-04-30T11:03:33.051Z,21.40
2018-04-30T11:05:59.210Z,20.90
2018-04-30T11:08:25.362Z,20.00
2018-04-30T11:10:51.551Z,19.40
2018-04-30T11:13:18.822Z,20.80
2018-04-30T11:15:45.030Z,20.80
2018-04-30T11:18:11.195Z,20.80
2018-04-30T11:20:37.479Z,20.90
2018-04-30T11:23:03.695Z,20.30
2018-04-30T11:25:29.930Z,19.90
2018-04-30T11:27:56.117Z,19.30
2018-04-30T11:30:22.288Z,19.20
2018-04-30T11:32:48.493Z,18.80
2018-04-30T11:35:14.690Z,19.50
2018-04-30T11:37:41.977Z,20.30
2018-04-30T11:40:08.194Z,20.30
2018-04-30T11:42:34.390Z,20.60
2018-04-30T11:45:00.778Z,21.00
2018-04-30T11:47:28.061Z,22.80
2018-04-30T11:49:54.221Z,22.80
2018-04-30T11:52:20.434Z,23.70
2018-04-30T11:54:46.617Z,23.80
2018-04-30T11:57:12.773Z,25.30
2018-04-30T11:59:39.734Z,26.10
2018-04-30T12:02:05.915Z,26.10
2018-04-30T12:04:33.207Z,24.30
2018-04-30T12:45:29.914Z,21.40
2018-04-30T12:47:56.097Z,21.10
2018-04-30T12:50:22.282Z,21.00
2018-04-30T12:52:48.481Z,21.80
2018-04-30T12:55:15.774Z,23.00
2018-04-30T12:57:41.982Z,23.00
2018-04-30T13:00:08.179Z,24.30
2018-04-30T13:02:34.420Z,26.80
2018-04-30T13:05:00.562Z,28.70
2018-04-30T13:07:27.515Z,28.70
2018-04-30T13:09:53.738Z,28.70
2018-04-30T13:12:20.785Z,28.80
2018-04-30T13:14:47.007Z,28.90
2018-04-30T13:17:13.199Z,30.70
2018-04-30T13:19:39.440Z,29.70
2018-04-30T13:22:05.661Z,29.80
2018-04-30T13:24:31.865Z,27.60
2018-04-30T13:26:58.072Z,29.00
2018-04-30T13:29:24.281Z,29.00
2018-04-30T13:31:50.471Z,28.80
2018-04-30T13:34:16.660Z,26.10
2018-04-30T13:36:42.853Z,25.30
2018-04-30T13:39:09.014Z,24.40
2018-04-30T13:41:35.180Z,24.00
2018-04-30T13:44:01.351Z,23.50
2018-04-30T13:46:27.513Z,23.70
2018-04-30T13:48:53.682Z,23.50
2018-04-30T13:51:19.865Z,23.30
2018-04-30T13:53:47.126Z,22.90
2018-04-30T13:56:13.357Z,22.80
2018-04-30T13:58:39.538Z,21.10
2018-04-30T14:01:06.467Z,20.50
2018-04-30T14:03:33.734Z,20.10
2018-04-30T14:05:59.907Z,20.10
2018-04-30T14:08:27.471Z,22.90
2018-04-30T14:10:53.633Z,22.70
2018-04-30T14:13:19.823Z,23.60
2018-04-30T14:15:46.023Z,24.40
2018-04-30T14:18:12.262Z,22.80
2018-04-30T14:20:38.463Z,22.10
2018-04-30T14:23:04.644Z,21.30
2018-04-30T14:25:32.005Z,20.20
2018-04-30T14:27:58.213Z,20.20
2018-04-30T14:30:24.385Z,19.80
2018-04-30T14:32:50.566Z,19.70
2018-04-30T14:35:16.747Z,20.60
2018-04-30T14:37:42.918Z,21.60
2018-04-30T14:40:09.091Z,21.20
2018-04-30T14:42:35.271Z,21.20
2018-04-30T14:45:02.174Z,20.70
2018-04-30T14:47:28.315Z,20.70
2018-04-30T14:49:55.635Z,20.30
2018-04-30T14:52:21.900Z,20.30
2018-04-30T14:54:48.094Z,19.50
2018-04-30T14:57:14.282Z,19.20
2018-04-30T14:59:41.558Z,18.90
2018-04-30T15:02:08.133Z,18.90
2018-04-30T15:04:34.322Z,19.00
2018-04-30T15:07:00.498Z,18.80
2018-04-30T15:09:26.679Z,18.50
2018-04-30T15:11:53.968Z,18.10
2018-04-30T15:14:20.126Z,18.10
2018-04-30T15:16:46.278Z,18.10
2018-04-30T15:19:12.473Z,18.00
2018-04-30T15:21:38.626Z,18.20
2018-04-30T15:24:04.793Z,18.00
2018-04-30T15:26:32.173Z,17.90
2018-04-30T15:28:58.326Z,17.90
2018-04-30T15:31:24.498Z,18.00
2018-04-30T15:33:50.646Z,17.90
2018-04-30T15:36:16.825Z,18.10
2018-04-30T15:38:43.041Z,18.20
2018-04-30T15:41:09.206Z,17.90
2018-04-30T15:46:05.251Z,17.70
2018-04-30T15:48:31.530Z,17.60
2018-04-30T15:50:58.819Z,17.30
2018-04-30T15:53:25.010Z,17.30
2018-04-30T15:55:51.154Z,17.30
2018-04-30T15:58:17.334Z,17.40
2018-04-30T16:00:44.411Z,17.20
2018-04-30T16:03:10.567Z,17.10
2018-04-30T16:05:36.751Z,17.20
2018-04-30T16:08:03.309Z,17.20
2018-04-30T16:10:29.477Z,17.40
2018-04-30T16:12:55.734Z,17.50
2018-04-30T16:15:21.926Z,17.60
2018-04-30T16:17:49.286Z,17.40
2018-04-30T16:20:15.448Z,17.40
2018-04-30T16:22:41.638Z,17.10
2018-04-30T16:25:07.795Z,17.00
2018-04-30T16:27:33.978Z,17.00
2018-04-30T16:30:00.173Z,17.10
2018-04-30T16:32:27.334Z,17.30
2018-04-30T16:34:53.502Z,17.40
2018-04-30T16:37:19.798Z,17.50
2018-04-30T16:39:46.258Z,17.60
2018-04-30T16:42:12.454Z,17.30
2018-04-30T16:44:38.627Z,17.20
2018-04-30T16:47:05.693Z,17.10
2018-04-30T16:49:32.393Z,17.10
2018-04-30T16:51:59.668Z,17.00
2018-04-30T16:54:25.868Z,16.90
2018-04-30T16:56:52.043Z,16.90
2018-04-30T16:59:18.229Z,16.90
2018-04-30T17:01:44.511Z,16.80
2018-04-30T17:04:10.674Z,16.90
2018-04-30T17:06:38.326Z,16.90
2018-04-30T17:09:04.590Z,16.80
2018-04-30T17:11:30.781Z,16.80
2018-04-30T17:13:58.038Z,16.80
2018-04-30T17:16:24.210Z,16.80
2018-04-30T17:18:50.394Z,16.70
2018-04-30T17:21:16.854Z,16.70
2018-04-30T17:23:43.102Z,16.50
2018-04-30T17:26:09.686Z,16.30
2018-04-30T17:28:35.938Z,16.40
2018-04-30T17:31:02.428Z,16.20
2018-04-30T17:33:29.761Z,16.00
2018-04-30T17:35:58.088Z,15.80
2018-04-30T17:38:24.310Z,15.80
2018-04-30T17:40:50.642Z,15.90
2018-04-30T17:43:17.339Z,15.70
2018-04-30T17:45:43.601Z,15.50
2018-04-30T17:48:10.169Z,15.30
2018-04-30T17:50:36.367Z,15.30
2018-04-30T17:53:02.546Z,15.30
2018-04-30T17:55:29.831Z,15.30
2018-04-30T17:57:56.010Z,15.20
2018-04-30T18:02:50.094Z,15.10
2018-04-30T18:05:16.334Z,14.90
2018-04-30T18:07:44.334Z,14.70
2018-04-30T18:10:10.648Z,14.60
2018-04-30T18:12:38.121Z,14.70
2018-04-30T18:15:05.055Z,14.50
2018-04-30T18:17:31.271Z,14.40
2018-04-30T18:19:57.495Z,14.60
2018-04-30T18:22:24.251Z,14.40
2018-04-30T18:24:50.467Z,14.50
2018-04-30T18:27:16.827Z,14.40
2018-04-30T18:29:44.719Z,14.30
2018-04-30T18:32:10.878Z,14.40
2018-04-30T18:34:38.192Z,14.30
2018-04-30T18:37:04.359Z,14.30
2018-04-30T18:39:30.514Z,14.30
2018-04-30T18:41:56.702Z,14.30
2018-04-30T18:44:22.929Z,14.10
2018-04-30T18:46:49.062Z,14.10
2018-04-30T18:49:15.219Z,13.90
2018-04-30T18:51:41.382Z,14.00
2018-04-30T18:54:07.550Z,13.90
2018-04-30T18:56:33.704Z,13.90
2018-04-30T18:58:59.899Z,13.90
2018-04-30T19:01:26.134Z,13.80
2018-04-30T19:03:52.444Z,13.90
2018-04-30T19:06:18.642Z,13.70
2018-04-30T19:08:44.806Z,13.90
2018-04-30T19:11:11.078Z,13.80
2018-04-30T19:13:37.242Z,13.90
2018-04-30T19:16:03.422Z,14.00
2018-04-30T19:18:29.650Z,13.90
2018-04-30T19:20:55.815Z,13.80
2018-04-30T19:23:21.970Z,13.70
2018-04-30T19:25:49.255Z,13.80
2018-04-30T19:28:15.410Z,13.80
2018-04-30T19:30:41.566Z,13.60
2018-04-30T19:33:07.737Z,13.60
2018-04-30T19:35:33.913Z,13.70
2018-04-30T19:38:00.122Z,13.70
2018-04-30T19:40:26.326Z,13.60
2018-04-30T19:42:52.478Z,13.70
2018-04-30T19:45:18.666Z,13.70
2018-04-30T19:47:44.976Z,13.80
2018-04-30T19:50:11.297Z,13.60
2018-04-30T19:52:37.487Z,13.70
2018-04-30T19:55:04.843Z,13.90
2018-04-30T19:57:31.122Z,13.80
2018-04-30T19:59:57.398Z,13.70
2018-04-30T20:02:23.618Z,13.80
2018-04-30T20:04:49.776Z,13.60
2018-04-30T20:07:17.203Z,13.80
2018-04-30T20:09:47.573Z,13.60
2018-04-30T20:12:13.728Z,13.70
2018-04-30T20:14:41.107Z,13.70
2018-04-30T20:17:07.310Z,13.70
2018-04-30T20:19:33.727Z,13.60
2018-04-30T20:24:27.946Z,13.70
2018-04-30T20:26:54.275Z,13.60
2018-04-30T20:29:20.448Z,13.60
2018-04-30T20:31:46.685Z,13.60
2018-04-30T20:34:12.873Z,13.50
2018-04-30T20:36:39.040Z,13.60
2018-04-30T20:39:05.331Z,13.40
2018-04-30T20:41:31.495Z,13.50
2018-04-30T20:46:25.682Z,13.40
2018-04-30T20:48:51.838Z,13.40
2018-04-30T20:51:18.024Z,13.20
2018-04-30T20:53:44.174Z,13.40
2018-04-30T20:56:10.389Z,13.40
2018-04-30T20:58:36.663Z,13.40
2018-04-30T21:01:03.040Z,13.30
2018-04-30T21:03:29.216Z,13.10
2018-04-30T21:05:56.109Z,12.90
2018-04-30T21:08:22.289Z,12.90
2018-04-30T21:15:47.680Z,12.80
2018-04-30T21:18:14.957Z,12.60
2018-04-30T21:20:41.145Z,12.50
2018-04-30T21:23:08.577Z,12.50
2018-04-30T21:25:35.875Z,12.60
2018-04-30T21:28:02.182Z,12.60
2018-04-30T21:30:28.416Z,12.50
2018-04-30T21:32:54.587Z,12.40
2018-04-30T21:35:20.922Z,12.40
2018-04-30T21:37:47.147Z,12.30
2018-04-30T21:40:13.366Z,12.30
2018-04-30T21:42:39.556Z,12.20
2018-04-30T21:45:07.952Z,12.20
2018-04-30T21:47:34.218Z,12.10
2018-04-30T21:50:00.429Z,12.00
2018-04-30T21:52:26.775Z,12.00
2018-04-30T21:54:53.039Z,12.00
2018-04-30T21:57:20.363Z,11.90
2018-04-30T21:59:47.035Z,11.90
2018-04-30T22:02:14.214Z,11.90
2018-04-30T22:04:40.416Z,11.70
2018-04-30T22:07:06.729Z,11.70
2018-04-30T22:09:33.136Z,11.80
2018-04-30T22:11:59.309Z,11.70
2018-04-30T22:16:53.407Z,11.70
2018-04-30T22:19:19.553Z,11.50
2018-04-30T22:22:07.826Z,11.60
2018-04-30T22:24:34.119Z,11.70
2018-04-30T22:27:01.430Z,11.60
2018-04-30T22:29:27.599Z,11.60
2018-04-30T22:31:53.991Z,11.50
2018-04-30T22:34:20.170Z,11.50
2018-04-30T22:36:47.990Z,11.50
2018-04-30T22:39:14.796Z,11.60
2018-04-30T22:41:40.942Z,11.60
2018-04-30T22:44:07.110Z,11.50
2018-04-30T22:46:34.402Z,11.50
2018-04-30T22:49:00.577Z,11.50
2018-04-30T22:51:26.847Z,11.50
2018-04-30T22:53:53.064Z,11.40
2018-04-30T22:56:19.371Z,11.40
2018-04-30T22:58:45.865Z,11.60
2018-04-30T23:01:12.081Z,11.60
2018-04-30T23:03:38.434Z,11.60
2018-04-30T23:06:04.595Z,11.40
2018-04-30T23:08:30.844Z,11.50
2018-04-30T23:10:57.042Z,11.50
2018-04-30T23:13:23.260Z,11.40
2018-04-30T23:15:49.429Z,11.50
2018-04-30T23:18:15.628Z,11.60
2018-04-30T23:20:42.889Z,11.50
2018-04-30T23:23:09.234Z,11.60
2018-04-30T23:25:35.406Z,11.70
2018-04-30T23:28:01.866Z,11.70
2018-04-30T23:30:28.173Z,11.60
2018-04-30T23:32:54.540Z,11.30
2018-04-30T23:35:20.962Z,11.30
2018-04-30T23:37:47.218Z,11.00
2018-04-30T23:40:13.398Z,10.90
2018-04-30T23:42:40.683Z,9.90
2018-04-30T23:45:06.837Z,10.60
2018-04-30T23:47:33.026Z,10.40
2018-04-30T23:49:59.199Z,10.10
2018-04-30T23:52:25.353Z,9.90
2018-04-30T23:54:51.540Z,9.90
2018-04-30T23:57:17.998Z,10.00
2018-04-30T23:59:44.198Z,9.90
